Terminal Aerodrome Forecast
Issued by NWS Boston, MA

Home | Current Version | Previous Version | Text Only | Print | Product List | Glossary On
Versions: 1 2 3 4 5 6 7 8 9 10 11 12 13 14 15 16 17 18 19 20 21 22 23
000
FTUS41 KBOX 290526
TAFBOS
TAF
KBOS 290526Z 2906/3012 19007KT P6SM OVC150
     FM290900 VRB03KT 6SM -SHRA BR OVC090
     FM291300 36004KT 4SM SHRA OVC050
     FM291800 07007KT 5SM -SHRA OVC030
     FM292000 06006KT P6SM VCSH OVC060
     FM300000 03005KT P6SM OVC150
     FM300600 33004KT P6SM BKN150=

USA.gov is the U.S. government's official web portal to all federal, state and local government web resources and services.